San Antonio, Texas
Traffic Map
Current Weather Conditions
San Antonio, Texas
Clear
Clear
18°
Feels Like: 18°
Wind Chill: 18° Ceiling: Unl
Heat Index: 18° Visibility: 10mi
Dew Point: 18° Wind: 6mph
Humidity: 99% Direction: 120° (ESE)
Pressure: 29.88in Gusts: 0mph
Raw Report DataKSKF 241058Z AUTO 12005KT 10SM CLR 18/18 A2988 RMK AO2 SLP113 T01790178 $
Traffic Incident Summary
Active as of:
Severity:
Category:
InformationThere was an issue retrieving the traffic information for this location. Please try a different location or try again shortly.
Advertisements
Track Severe Weather on mobile